createdAt,value
2023-05-09T00:00:50.045Z,0.4557
2023-05-09T00:01:51.157Z,0.4534
2023-05-09T00:02:52.265Z,0.4510
2023-05-09T00:03:53.400Z,0.4501
2023-05-09T00:04:54.459Z,0.4508
2023-05-09T00:05:55.610Z,0.4504
2023-05-09T00:06:56.620Z,0.4523
2023-05-09T00:07:57.712Z,0.4533
2023-05-09T00:08:58.816Z,0.4533
2023-05-09T00:09:59.897Z,0.4540
2023-05-09T00:11:00.999Z,0.4525
2023-05-09T00:12:02.096Z,0.4496
2023-05-09T00:13:03.208Z,0.4475
2023-05-09T00:14:04.276Z,0.4446
2023-05-09T00:15:05.422Z,0.4464
2023-05-09T00:16:06.474Z,0.4485
2023-05-09T00:17:07.537Z,0.4490
2023-05-09T00:18:08.626Z,0.4519
2023-05-09T00:19:09.736Z,0.4499
2023-05-09T00:20:10.842Z,0.4492
2023-05-09T00:21:11.998Z,0.4515
2023-05-09T00:22:12.998Z,0.4538
2023-05-09T00:23:14.101Z,0.4543
2023-05-09T00:24:15.196Z,0.4528
2023-05-09T00:25:16.508Z,0.4493
2023-05-09T00:26:17.389Z,0.4479
2023-05-09T00:27:18.494Z,0.4465
2023-05-09T00:28:19.573Z,0.4448
2023-05-09T00:29:20.671Z,0.4480
2023-05-09T00:30:21.750Z,0.4504
2023-05-09T00:31:22.862Z,0.4494
2023-05-09T00:32:23.951Z,0.4481
2023-05-09T00:33:25.065Z,0.4446
2023-05-09T00:34:26.146Z,0.4454
2023-05-09T00:35:27.243Z,0.4440
2023-05-09T00:36:28.420Z,0.4422
2023-05-09T00:37:29.434Z,0.4415
2023-05-09T00:38:30.544Z,0.4391
2023-05-09T00:39:31.622Z,0.4390
2023-05-09T00:40:32.732Z,0.4395
2023-05-09T00:41:33.807Z,0.4428
2023-05-09T00:42:34.901Z,0.4473
2023-05-09T00:43:35.982Z,0.4473
2023-05-09T00:44:37.086Z,0.4453
2023-05-09T00:45:38.198Z,0.4419
2023-05-09T00:46:39.273Z,0.4404
2023-05-09T00:47:40.383Z,0.4385
2023-05-09T00:48:41.458Z,0.4386
2023-05-09T00:49:42.563Z,0.4377
2023-05-09T00:50:43.671Z,0.4365
2023-05-09T00:51:44.827Z,0.4363
2023-05-09T00:52:45.819Z,0.4349
2023-05-09T00:53:46.908Z,0.4361
2023-05-09T00:54:48.038Z,0.4380
2023-05-09T00:55:49.109Z,0.4395
2023-05-09T00:56:50.212Z,0.4399
2023-05-09T00:57:51.309Z,0.4407
2023-05-09T00:58:52.398Z,0.4386
2023-05-09T00:59:53.506Z,0.4403
2023-05-09T01:00:54.603Z,0.4400
2023-05-09T01:01:55.689Z,0.4385
2023-05-09T01:02:56.935Z,0.4389
2023-05-09T01:03:57.886Z,0.4379
2023-05-09T01:04:58.992Z,0.4373
2023-05-09T01:06:00.105Z,0.4368
2023-05-09T01:07:01.281Z,0.4364
2023-05-09T01:08:02.280Z,0.4359
2023-05-09T01:09:03.373Z,0.4352
2023-05-09T01:10:04.453Z,0.4347
2023-05-09T01:11:05.617Z,0.4358
2023-05-09T01:12:06.654Z,0.4348
2023-05-09T01:13:07.759Z,0.4360
2023-05-09T01:14:08.856Z,0.4362
2023-05-09T01:15:09.948Z,0.4368
2023-05-09T01:16:11.078Z,0.4337
2023-05-09T01:17:12.108Z,0.4333
2023-05-09T01:18:13.245Z,0.4342
2023-05-09T01:19:14.309Z,0.4342
2023-05-09T01:20:15.405Z,0.4349
2023-05-09T01:21:16.509Z,0.4320
2023-05-09T01:22:17.709Z,0.4308
2023-05-09T01:23:18.693Z,0.4296
2023-05-09T01:24:19.772Z,0.4292
2023-05-09T01:25:20.886Z,0.4302
2023-05-09T01:26:21.964Z,0.4289
2023-05-09T01:27:23.055Z,0.4284
2023-05-09T01:28:24.148Z,0.4310
2023-05-09T01:29:25.254Z,0.4314
2023-05-09T01:30:26.350Z,0.4317
2023-05-09T01:31:27.450Z,0.4305
2023-05-09T01:32:28.614Z,0.4298
2023-05-09T01:33:29.636Z,0.4302
2023-05-09T01:34:30.739Z,0.4307
2023-05-09T01:35:31.834Z,0.4304
2023-05-09T01:36:33.017Z,0.4320
2023-05-09T01:37:34.089Z,0.4323
2023-05-09T01:38:35.109Z,0.4286
2023-05-09T01:39:36.190Z,0.4261
2023-05-09T01:40:37.286Z,0.4251
2023-05-09T01:41:38.416Z,0.4262
2023-05-09T01:42:39.473Z,0.4273
2023-05-09T01:43:40.653Z,0.4272
2023-05-09T01:44:41.663Z,0.4274
2023-05-09T01:45:42.773Z,0.4275
2023-05-09T01:46:43.888Z,0.4258
2023-05-09T01:47:44.991Z,0.4250
2023-05-09T01:48:46.031Z,0.4275
2023-05-09T01:49:47.120Z,0.4249
2023-05-09T01:50:48.208Z,0.4252
2023-05-09T01:51:49.318Z,0.4255
2023-05-09T01:52:50.495Z,0.4236
2023-05-09T01:53:51.493Z,0.4221
2023-05-09T01:54:52.592Z,0.4201
2023-05-09T01:55:53.665Z,0.4205
2023-05-09T01:56:54.796Z,0.4192
2023-05-09T01:57:55.858Z,0.4202
2023-05-09T01:58:56.960Z,0.4193
2023-05-09T01:59:58.041Z,0.4166
2023-05-09T02:00:59.180Z,0.4200
2023-05-09T02:02:00.361Z,0.4222
2023-05-09T02:03:01.427Z,0.4239
2023-05-09T02:04:02.427Z,0.4277
2023-05-09T02:05:03.568Z,0.4297
2023-05-09T02:06:04.611Z,0.4327
2023-05-09T02:07:05.742Z,0.4317
2023-05-09T02:08:06.907Z,0.4291
2023-05-09T02:09:07.884Z,0.4300
2023-05-09T02:10:08.977Z,0.4274
2023-05-09T02:11:17.612Z,0.4254
2023-05-09T02:12:11.179Z,0.4265
2023-05-09T02:13:12.278Z,0.4267
2023-05-09T02:14:13.355Z,0.4269
2023-05-09T02:15:14.648Z,0.4282
2023-05-09T02:16:15.593Z,0.4271
2023-05-09T02:17:16.624Z,0.4279
2023-05-09T02:18:17.719Z,0.4293
2023-05-09T02:19:18.806Z,0.4312
2023-05-09T02:20:19.891Z,0.4339
2023-05-09T02:21:20.985Z,0.4338
2023-05-09T02:22:22.105Z,0.4319
2023-05-09T02:23:23.267Z,0.4307
2023-05-09T02:24:24.340Z,0.4300
2023-05-09T02:25:25.417Z,0.4282
2023-05-09T02:26:26.515Z,0.4251
2023-05-09T02:27:27.625Z,0.4261
2023-05-09T02:28:28.686Z,0.4270
2023-05-09T02:29:29.788Z,0.4260
2023-05-09T02:30:30.874Z,0.4248
2023-05-09T02:31:32.009Z,0.4283
2023-05-09T02:32:33.097Z,0.4285
2023-05-09T02:33:34.131Z,0.4298
2023-05-09T02:34:35.223Z,0.4303
2023-05-09T02:35:36.307Z,0.4308
2023-05-09T02:36:37.437Z,0.4297
2023-05-09T02:37:38.499Z,0.4307
2023-05-09T02:38:39.641Z,0.4319
2023-05-09T02:39:40.650Z,0.4315
2023-05-09T02:40:41.744Z,0.4317
2023-05-09T02:41:42.814Z,0.4283
2023-05-09T02:42:43.911Z,0.4283
2023-05-09T02:43:44.991Z,0.4282
2023-05-09T02:44:46.089Z,0.4264
2023-05-09T02:45:47.249Z,0.4260
2023-05-09T02:46:48.265Z,0.4242
2023-05-09T02:47:49.416Z,0.4252
2023-05-09T02:48:50.460Z,0.4249
2023-05-09T02:49:51.556Z,0.4244
2023-05-09T02:50:52.689Z,0.4255
2023-05-09T02:51:53.741Z,0.4240
2023-05-09T02:52:54.819Z,0.4240
2023-05-09T02:53:55.984Z,0.4234
2023-05-09T02:54:57.018Z,0.4235
2023-05-09T02:55:58.112Z,0.4230
2023-05-09T02:56:59.213Z,0.4230
2023-05-09T02:58:12.562Z,0.4266
2023-05-09T02:59:02.370Z,0.4280
2023-05-09T03:00:02.489Z,0.4281
2023-05-09T03:01:03.609Z,0.4313
2023-05-09T03:02:04.664Z,0.4295
2023-05-09T03:03:05.877Z,0.4304
2023-05-09T03:04:06.840Z,0.4308
2023-05-09T03:05:07.947Z,0.4320
2023-05-09T03:06:09.022Z,0.4331
2023-05-09T03:07:10.117Z,0.4307
2023-05-09T03:08:11.256Z,0.4288
2023-05-09T03:09:12.383Z,0.4287
2023-05-09T03:10:13.430Z,0.4271
2023-05-09T03:11:14.481Z,0.4272
2023-05-09T03:12:15.598Z,0.4302
2023-05-09T03:13:16.712Z,0.4319
2023-05-09T03:14:17.784Z,0.4316
2023-05-09T03:15:18.874Z,0.4325
2023-05-09T03:16:20.047Z,0.4320
2023-05-09T03:17:21.129Z,0.4348
2023-05-09T03:18:22.157Z,0.4354
2023-05-09T03:19:23.253Z,0.4348
2023-05-09T03:20:24.345Z,0.4356
2023-05-09T03:21:25.425Z,0.4393
2023-05-09T03:22:26.536Z,0.4376
2023-05-09T03:23:27.607Z,0.4338
2023-05-09T03:24:28.802Z,0.4302
2023-05-09T03:25:29.806Z,0.4307
2023-05-09T03:26:30.887Z,0.4320
2023-05-09T03:27:31.986Z,0.4330
2023-05-09T03:28:33.094Z,0.4340
2023-05-09T03:29:34.161Z,0.4359
2023-05-09T03:30:35.270Z,0.4377
2023-05-09T03:31:36.419Z,0.4360
2023-05-09T03:32:37.491Z,0.4370
2023-05-09T03:33:38.565Z,0.4428
2023-05-09T03:34:39.622Z,0.4476
2023-05-09T03:35:40.755Z,0.4491
2023-05-09T03:36:41.806Z,0.4489
2023-05-09T03:37:42.902Z,0.4504
2023-05-09T03:38:44.047Z,0.4487
2023-05-09T03:39:45.180Z,0.4483
2023-05-09T03:40:46.195Z,0.4509
2023-05-09T03:41:47.266Z,0.4521
2023-05-09T03:42:48.398Z,0.4524
2023-05-09T03:43:49.502Z,0.4505
2023-05-09T03:44:50.550Z,0.4482
2023-05-09T03:45:51.643Z,0.4492
2023-05-09T03:46:52.850Z,0.4519
2023-05-09T03:47:53.868Z,0.4520
2023-05-09T03:48:54.968Z,0.4511
2023-05-09T03:49:56.039Z,0.4510
2023-05-09T03:50:57.130Z,0.4519
2023-05-09T03:51:58.210Z,0.4525
2023-05-09T03:52:59.315Z,0.4501
2023-05-09T03:54:00.408Z,0.4522
2023-05-09T03:55:01.595Z,0.4502
2023-05-09T03:56:02.591Z,0.4477
2023-05-09T03:57:03.668Z,0.4493
2023-05-09T03:58:04.783Z,0.4517
2023-05-09T03:59:05.887Z,0.4513
2023-05-09T04:00:06.995Z,0.4500
2023-05-09T04:01:08.060Z,0.4518
2023-05-09T04:02:09.190Z,0.4485
2023-05-09T04:03:10.464Z,0.4464
2023-05-09T04:04:11.411Z,0.4455
2023-05-09T04:05:12.673Z,0.4469
2023-05-09T04:06:13.513Z,0.4468
2023-05-09T04:07:14.614Z,0.4478
2023-05-09T04:08:15.722Z,0.4486
2023-05-09T04:09:16.817Z,0.4500
2023-05-09T04:10:18.015Z,0.4575
2023-05-09T04:11:18.985Z,0.4606
2023-05-09T04:12:20.086Z,0.4609
2023-05-09T04:13:21.242Z,0.4592
2023-05-09T04:14:22.297Z,0.4597
2023-05-09T04:15:23.384Z,0.4634
2023-05-09T04:16:24.501Z,0.4628
2023-05-09T04:17:25.632Z,0.4630
2023-05-09T04:18:26.661Z,0.4635
2023-05-09T04:19:27.793Z,0.4612
2023-05-09T04:20:28.839Z,0.4604
2023-05-09T04:21:29.920Z,0.4573
2023-05-09T04:22:31.048Z,0.4540
2023-05-09T04:23:32.121Z,0.4505
2023-05-09T04:24:33.219Z,0.4511
2023-05-09T04:25:34.402Z,0.4516
2023-05-09T04:26:35.386Z,0.4488
2023-05-09T04:27:36.481Z,0.4459
2023-05-09T04:28:37.568Z,0.4446
2023-05-09T04:29:38.708Z,0.4472
2023-05-09T04:30:39.779Z,0.4479
2023-05-09T04:31:40.909Z,0.4479
2023-05-09T04:32:41.990Z,0.4489
2023-05-09T04:33:43.063Z,0.4486
2023-05-09T04:34:44.169Z,0.4518
2023-05-09T04:35:45.217Z,0.4586
2023-05-09T04:36:46.308Z,0.4571
2023-05-09T04:37:47.411Z,0.4555
2023-05-09T04:38:48.512Z,0.4549
2023-05-09T04:39:49.622Z,0.4565
2023-05-09T04:40:50.781Z,0.4571
2023-05-09T04:41:51.785Z,0.4557
2023-05-09T04:42:52.869Z,0.4556
2023-05-09T04:43:53.957Z,0.4567
2023-05-09T04:44:55.073Z,0.4578
2023-05-09T04:45:56.187Z,0.4588
2023-05-09T04:46:57.239Z,0.4563
2023-05-09T04:47:58.475Z,0.4580
2023-05-09T04:48:59.459Z,0.4548
2023-05-09T04:50:00.537Z,0.4516
2023-05-09T04:51:01.619Z,0.4511
2023-05-09T04:52:02.754Z,0.4529
2023-05-09T04:53:03.808Z,0.4530
2023-05-09T04:54:04.911Z,0.4544
2023-05-09T04:55:06.010Z,0.4564
2023-05-09T04:56:07.197Z,0.4546
2023-05-09T04:57:17.455Z,0.4560
2023-05-09T04:58:10.267Z,0.4572
2023-05-09T04:59:10.400Z,0.4587
2023-05-09T05:00:11.516Z,0.4600
2023-05-09T05:01:12.617Z,0.4630
2023-05-09T05:02:13.667Z,0.4624
2023-05-09T05:03:14.750Z,0.4597
2023-05-09T05:04:15.895Z,0.4627
2023-05-09T05:05:17.109Z,0.4656
2023-05-09T05:06:18.075Z,0.4636
2023-05-09T05:07:19.141Z,0.4630
2023-05-09T05:08:20.262Z,0.4626
2023-05-09T05:09:21.345Z,0.4589
2023-05-09T05:10:22.471Z,0.4557
2023-05-09T05:11:23.611Z,0.4575
2023-05-09T05:12:24.624Z,0.4598
2023-05-09T05:13:25.814Z,0.4627
2023-05-09T05:14:26.813Z,0.4612
2023-05-09T05:15:27.917Z,0.4624
2023-05-09T05:16:29.092Z,0.4587
2023-05-09T05:17:30.116Z,0.4554
2023-05-09T05:18:31.188Z,0.4584
2023-05-09T05:19:32.298Z,0.4577
2023-05-09T05:20:33.423Z,0.4564
2023-05-09T05:21:34.473Z,0.4592
2023-05-09T05:22:35.587Z,0.4567
2023-05-09T05:23:36.667Z,0.4590
2023-05-09T05:24:37.786Z,0.4585
2023-05-09T05:25:38.883Z,0.4568
2023-05-09T05:26:40.052Z,0.4582
2023-05-09T05:27:41.105Z,0.4573
2023-05-09T05:28:42.149Z,0.4561
2023-05-09T05:29:43.256Z,0.4548
2023-05-09T05:30:44.363Z,0.4559
2023-05-09T05:31:45.443Z,0.4586
2023-05-09T05:32:46.547Z,0.4563
2023-05-09T05:33:47.621Z,0.4565
2023-05-09T05:34:48.729Z,0.4570
2023-05-09T05:35:49.829Z,0.4538
2023-05-09T05:36:50.899Z,0.4555
2023-05-09T05:37:52.001Z,0.4574
2023-05-09T05:38:53.107Z,0.4562
2023-05-09T05:39:54.213Z,0.4566
2023-05-09T05:40:55.322Z,0.4552
2023-05-09T05:41:56.496Z,0.4564
2023-05-09T05:42:57.503Z,0.4538
2023-05-09T05:43:58.583Z,0.4483
2023-05-09T05:44:59.685Z,0.4466
2023-05-09T05:46:00.838Z,0.4450
2023-05-09T05:47:01.864Z,0.4488
2023-05-09T05:48:03.032Z,0.4466
2023-05-09T05:49:04.068Z,0.4453
2023-05-09T05:50:05.161Z,0.4509
2023-05-09T05:51:06.261Z,0.4514
2023-05-09T05:52:07.356Z,0.4526
2023-05-09T05:53:08.446Z,0.4552
2023-05-09T05:54:09.542Z,0.4566
2023-05-09T05:55:10.652Z,0.4577
2023-05-09T05:56:11.784Z,0.4584
2023-05-09T05:57:12.864Z,0.4581
2023-05-09T05:58:13.958Z,0.4587
2023-05-09T05:59:15.026Z,0.4588
2023-05-09T06:00:16.117Z,0.4555
2023-05-09T06:01:17.223Z,0.4548
2023-05-09T06:02:18.436Z,0.4586
2023-05-09T06:03:19.499Z,0.4620
2023-05-09T06:04:20.614Z,0.4628
2023-05-09T06:05:21.602Z,0.4655
2023-05-09T06:06:22.708Z,0.4656
2023-05-09T06:07:23.790Z,0.4625
2023-05-09T06:08:24.895Z,0.4610
2023-05-09T06:09:25.992Z,0.4638
2023-05-09T06:10:27.099Z,0.4644
2023-05-09T06:11:28.208Z,0.4655
2023-05-09T06:12:29.378Z,0.4667
2023-05-09T06:13:30.402Z,0.4680
2023-05-09T06:14:31.478Z,0.4674
2023-05-09T06:15:32.560Z,0.4644
2023-05-09T06:16:33.677Z,0.4613
2023-05-09T06:17:34.785Z,0.4578
2023-05-09T06:18:35.861Z,0.4608
2023-05-09T06:19:36.953Z,0.4635
2023-05-09T06:20:38.048Z,0.4674
2023-05-09T06:21:39.149Z,0.4665
2023-05-09T06:22:40.234Z,0.4675
2023-05-09T06:23:57.000Z,0.4715
2023-05-09T06:24:43.488Z,0.4698
2023-05-09T06:25:43.613Z,0.4689
2023-05-09T06:26:44.666Z,0.4672
2023-05-09T06:27:45.849Z,0.4647
2023-05-09T06:28:46.871Z,0.4612
2023-05-09T06:29:47.976Z,0.4621
2023-05-09T06:30:49.065Z,0.4666
2023-05-09T06:31:50.191Z,0.4645
2023-05-09T06:32:51.284Z,0.4586
2023-05-09T06:33:52.373Z,0.4543
2023-05-09T06:34:53.456Z,0.4533
2023-05-09T06:35:54.532Z,0.4556
2023-05-09T06:36:55.633Z,0.4572
2023-05-09T06:37:56.737Z,0.4563
2023-05-09T06:38:57.821Z,0.4576
2023-05-09T06:39:58.920Z,0.4584
2023-05-09T06:41:00.011Z,0.4585
2023-05-09T06:42:01.146Z,0.4553
2023-05-09T06:43:02.300Z,0.4559
2023-05-09T06:44:03.300Z,0.4524
2023-05-09T06:45:04.425Z,0.4512
2023-05-09T06:46:05.537Z,0.4468
2023-05-09T06:47:06.593Z,0.4486
2023-05-09T06:48:07.787Z,0.4525
2023-05-09T06:49:08.775Z,0.4559
2023-05-09T06:50:09.883Z,0.4570
2023-05-09T06:51:10.988Z,0.4592
2023-05-09T06:52:12.073Z,0.4612
2023-05-09T06:53:13.158Z,0.4638
2023-05-09T06:54:14.257Z,0.4656
2023-05-09T06:55:15.591Z,0.4680
2023-05-09T06:56:18.322Z,0.4694
2023-05-09T06:57:17.541Z,0.4684
2023-05-09T06:58:18.718Z,0.4720
2023-05-09T06:59:19.712Z,0.4702
2023-05-09T07:00:20.826Z,0.4655
2023-05-09T07:01:21.979Z,0.4639
2023-05-09T07:02:23.039Z,0.4668
2023-05-09T07:03:24.091Z,0.4662
2023-05-09T07:04:25.189Z,0.4619
2023-05-09T07:05:26.353Z,0.4652
2023-05-09T07:06:27.369Z,0.4642
2023-05-09T07:07:28.500Z,0.4628
2023-05-09T07:08:29.564Z,0.4666
2023-05-09T07:09:30.667Z,0.4668
2023-05-09T07:10:31.730Z,0.4692
2023-05-09T07:11:32.820Z,0.4728
2023-05-09T07:12:33.946Z,0.4740
2023-05-09T07:13:35.114Z,0.4717
2023-05-09T07:14:36.129Z,0.4690
2023-05-09T07:15:42.266Z,0.4648
2023-05-09T07:16:39.357Z,0.4603
2023-05-09T07:17:39.505Z,0.4583
2023-05-09T07:18:40.509Z,0.4561
2023-05-09T07:19:41.583Z,0.4537
2023-05-09T07:20:42.685Z,0.4559
2023-05-09T07:21:43.795Z,0.4534
2023-05-09T07:22:44.891Z,0.4476
2023-05-09T07:23:46.060Z,0.4463
2023-05-09T07:24:47.076Z,0.4470
2023-05-09T07:25:48.169Z,0.4477
2023-05-09T07:26:49.258Z,0.4488
2023-05-09T07:27:50.388Z,0.4469
2023-05-09T07:28:51.533Z,0.4436
2023-05-09T07:29:52.541Z,0.4407
2023-05-09T07:30:53.655Z,0.4351
2023-05-09T07:31:54.788Z,0.4338
2023-05-09T07:32:55.885Z,0.4343
2023-05-09T07:33:56.925Z,0.4341
2023-05-09T07:34:58.035Z,0.4374
2023-05-09T07:35:59.162Z,0.4418
2023-05-09T07:37:00.218Z,0.4428
2023-05-09T07:38:01.337Z,0.4445
2023-05-09T07:39:02.394Z,0.4485
2023-05-09T07:40:03.500Z,0.4478
2023-05-09T07:41:04.611Z,0.4467
2023-05-09T07:42:05.701Z,0.4468
2023-05-09T07:43:06.790Z,0.4458
2023-05-09T07:44:08.023Z,0.4452
2023-05-09T07:45:08.980Z,0.4417
2023-05-09T07:46:10.125Z,0.4434
2023-05-09T07:47:11.160Z,0.4440
2023-05-09T07:48:12.334Z,0.4449
2023-05-09T07:49:13.358Z,0.4461
2023-05-09T07:50:14.448Z,0.4457
2023-05-09T07:51:15.547Z,0.4444
2023-05-09T07:52:16.618Z,0.4413
2023-05-09T07:53:17.791Z,0.4424
2023-05-09T07:54:18.828Z,0.4447
2023-05-09T07:55:19.917Z,0.4455
2023-05-09T07:56:21.014Z,0.4408
2023-05-09T07:57:22.143Z,0.4424
2023-05-09T07:58:23.196Z,0.4435
2023-05-09T07:59:24.367Z,0.4391
2023-05-09T08:00:25.459Z,0.4391
2023-05-09T08:01:26.485Z,0.4378
2023-05-09T08:02:27.625Z,0.4366
2023-05-09T08:03:28.721Z,0.4363
2023-05-09T08:04:29.793Z,0.4415
2023-05-09T08:05:30.877Z,0.4390
2023-05-09T08:06:31.947Z,0.4339
2023-05-09T08:07:33.055Z,0.4325
2023-05-09T08:08:34.175Z,0.4343
2023-05-09T08:09:35.240Z,0.4319
2023-05-09T08:10:36.367Z,0.4336
2023-05-09T08:11:37.433Z,0.4323
2023-05-09T08:12:38.564Z,0.4330
2023-05-09T08:13:39.620Z,0.4320
2023-05-09T08:14:40.810Z,0.4295
2023-05-09T08:15:41.867Z,0.4277
2023-05-09T08:16:42.907Z,0.4309
2023-05-09T08:17:44.060Z,0.4307
2023-05-09T08:18:45.118Z,0.4299
2023-05-09T08:19:46.188Z,0.4284
2023-05-09T08:20:47.283Z,0.4299
2023-05-09T08:21:48.377Z,0.4321
2023-05-09T08:22:49.486Z,0.4337
2023-05-09T08:23:50.568Z,0.4362
2023-05-09T08:24:51.643Z,0.4343
2023-05-09T08:25:52.748Z,0.4324
2023-05-09T08:26:53.849Z,0.4308
2023-05-09T08:27:54.942Z,0.4283
2023-05-09T08:28:56.063Z,0.4282
2023-05-09T08:29:57.223Z,0.4268
2023-05-09T08:30:58.271Z,0.4267
2023-05-09T08:31:59.405Z,0.4279
2023-05-09T08:33:00.445Z,0.4264
2023-05-09T08:34:01.531Z,0.4265
2023-05-09T08:35:02.626Z,0.4257
2023-05-09T08:36:03.711Z,0.4246
2023-05-09T08:37:04.795Z,0.4217
2023-05-09T08:38:05.891Z,0.4236
2023-05-09T08:39:06.984Z,0.4240
2023-05-09T08:40:08.086Z,0.4276
2023-05-09T08:41:09.201Z,0.4276
2023-05-09T08:42:10.287Z,0.4313
2023-05-09T08:43:11.386Z,0.4292
2023-05-09T08:44:12.483Z,0.4289
2023-05-09T08:45:13.558Z,0.4287
2023-05-09T08:46:14.680Z,0.4319
2023-05-09T08:47:15.767Z,0.4365
2023-05-09T08:48:16.865Z,0.4362
2023-05-09T08:49:17.946Z,0.4337
2023-05-09T08:50:19.164Z,0.4373
2023-05-09T08:51:20.149Z,0.4432
2023-05-09T08:52:21.244Z,0.4430
2023-05-09T08:53:22.314Z,0.4414
2023-05-09T08:54:23.447Z,0.4429
2023-05-09T08:55:24.519Z,0.4406
2023-05-09T08:56:25.614Z,0.4429
2023-05-09T08:57:26.693Z,0.4418
2023-05-09T08:58:27.797Z,0.4411
2023-05-09T08:59:28.902Z,0.4399
2023-05-09T09:00:30.080Z,0.4382
2023-05-09T09:01:31.105Z,0.4355
2023-05-09T09:02:32.204Z,0.4332
2023-05-09T09:03:33.280Z,0.4333
2023-05-09T09:04:34.428Z,0.4315
2023-05-09T09:06:36.567Z,0.4367
2023-05-09T09:07:37.662Z,0.4335
2023-05-09T09:08:38.761Z,0.4321
2023-05-09T09:09:39.856Z,0.4314
2023-05-09T09:10:40.925Z,0.4313
2023-05-09T09:11:42.039Z,0.4305
2023-05-09T09:12:43.145Z,0.4297
2023-05-09T09:13:44.202Z,0.4295
2023-05-09T09:14:45.324Z,0.4295
2023-05-09T09:15:46.509Z,0.4308
2023-05-09T09:16:47.530Z,0.4330
2023-05-09T09:17:48.624Z,0.4331
2023-05-09T09:18:49.691Z,0.4330
2023-05-09T09:19:50.838Z,0.4332
2023-05-09T09:20:51.866Z,0.4308
2023-05-09T09:21:52.973Z,0.4329
2023-05-09T09:22:54.095Z,0.4311
2023-05-09T09:23:55.174Z,0.4305
2023-05-09T09:24:56.259Z,0.4333
2023-05-09T09:25:59.539Z,0.4346
2023-05-09T09:26:58.449Z,0.4356
2023-05-09T09:27:59.579Z,0.4324
2023-05-09T09:29:00.640Z,0.4302
2023-05-09T09:30:01.770Z,0.4309
2023-05-09T09:31:02.915Z,0.4290
2023-05-09T09:32:03.949Z,0.4318
2023-05-09T09:33:05.117Z,0.4330
2023-05-09T09:34:06.936Z,0.4341
2023-05-09T09:35:07.238Z,0.4282
2023-05-09T09:36:08.295Z,0.4302
2023-05-09T09:37:09.395Z,0.4329
2023-05-09T09:38:10.497Z,0.4366
2023-05-09T09:39:11.590Z,0.4338
2023-05-09T09:40:12.913Z,0.4332
2023-05-09T09:41:13.782Z,0.4346
2023-05-09T09:42:14.894Z,0.4280
2023-05-09T09:43:15.969Z,0.4274
2023-05-09T09:44:17.081Z,0.4295
2023-05-09T09:45:18.186Z,0.4269
2023-05-09T09:46:19.361Z,0.4293
2023-05-09T09:47:20.352Z,0.4339
2023-05-09T09:48:21.445Z,0.4337
2023-05-09T09:49:22.523Z,0.4320
2023-05-09T09:50:23.648Z,0.4315
2023-05-09T09:51:24.712Z,0.4349
2023-05-09T09:52:25.835Z,0.4323
2023-05-09T09:53:26.919Z,0.4325
2023-05-09T09:54:28.037Z,0.4289
2023-05-09T09:55:29.107Z,0.4258
2023-05-09T09:56:30.190Z,0.4280
2023-05-09T09:57:31.348Z,0.4310
2023-05-09T09:58:32.399Z,0.4335
2023-05-09T09:59:33.495Z,0.4331
2023-05-09T10:00:34.566Z,0.4321
2023-05-09T10:01:35.805Z,0.4345
2023-05-09T10:02:36.789Z,0.4357
2023-05-09T10:03:37.889Z,0.4396
2023-05-09T10:04:39.053Z,0.4403
2023-05-09T10:05:40.039Z,0.4428
2023-05-09T10:06:41.121Z,0.4420
2023-05-09T10:07:42.214Z,0.4407
2023-05-09T10:08:43.293Z,0.4401
2023-05-09T10:09:44.380Z,0.4451
2023-05-09T10:10:45.515Z,0.4479
2023-05-09T10:11:46.568Z,0.4470
2023-05-09T10:12:47.719Z,0.4516
2023-05-09T10:13:48.763Z,0.4517
2023-05-09T10:14:49.856Z,0.4487
2023-05-09T10:15:53.879Z,0.4490
2023-05-09T10:16:52.204Z,0.4520
2023-05-09T10:17:53.271Z,0.4534
2023-05-09T10:18:54.308Z,0.4536
2023-05-09T10:19:55.318Z,0.4533
2023-05-09T10:20:56.482Z,0.4527
2023-05-09T10:21:57.498Z,0.4518
2023-05-09T10:22:58.581Z,0.4536
2023-05-09T10:23:59.684Z,0.4570
2023-05-09T10:25:00.836Z,0.4516
2023-05-09T10:26:01.957Z,0.4509
2023-05-09T10:27:03.035Z,0.4519
2023-05-09T10:28:04.139Z,0.4500
2023-05-09T10:29:05.208Z,0.4464
2023-05-09T10:30:06.322Z,0.4434
2023-05-09T10:31:08.872Z,0.4414
2023-05-09T10:32:08.589Z,0.4438
2023-05-09T10:33:09.639Z,0.4453
2023-05-09T10:34:10.696Z,0.4509
2023-05-09T10:35:11.825Z,0.4533
2023-05-09T10:36:12.920Z,0.4507
2023-05-09T10:37:13.976Z,0.4491
2023-05-09T10:38:15.072Z,0.4481
2023-05-09T10:39:16.168Z,0.4518
2023-05-09T10:40:17.274Z,0.4556
2023-05-09T10:41:18.356Z,0.4590
2023-05-09T10:42:19.467Z,0.4633
2023-05-09T10:43:20.538Z,0.4638
2023-05-09T10:44:21.624Z,0.4657
2023-05-09T10:45:22.765Z,0.4654
2023-05-09T10:46:23.905Z,0.4645
2023-05-09T10:47:25.035Z,0.4628
2023-05-09T10:48:26.001Z,0.4631
2023-05-09T10:49:27.096Z,0.4625
2023-05-09T10:50:28.198Z,0.4620
2023-05-09T10:51:29.310Z,0.4608
2023-05-09T10:52:30.395Z,0.4643
2023-05-09T10:53:31.479Z,0.4633
2023-05-09T10:54:32.562Z,0.4618
2023-05-09T10:55:33.655Z,0.4618
2023-05-09T10:56:34.772Z,0.4617
2023-05-09T10:57:35.858Z,0.4626
2023-05-09T10:58:36.932Z,0.4613
2023-05-09T10:59:38.036Z,0.4595
2023-05-09T11:00:39.141Z,0.4609
2023-05-09T11:01:40.301Z,0.4583
2023-05-09T11:02:41.463Z,0.4549
2023-05-09T11:03:42.500Z,0.4539
2023-05-09T11:04:43.516Z,0.4515
2023-05-09T11:05:44.583Z,0.4525
2023-05-09T11:06:45.706Z,0.4591
2023-05-09T11:07:46.786Z,0.4622
2023-05-09T11:08:47.878Z,0.4628
2023-05-09T11:09:48.968Z,0.4651
2023-05-09T11:10:50.055Z,0.4658
2023-05-09T11:11:51.168Z,0.4646
2023-05-09T11:12:52.248Z,0.4622
2023-05-09T11:13:53.340Z,0.4616
2023-05-09T11:14:54.433Z,0.4617
2023-05-09T11:15:55.578Z,0.4585
2023-05-09T11:16:56.613Z,0.4579
2023-05-09T11:17:57.840Z,0.4612
2023-05-09T11:18:58.813Z,0.4576
2023-05-09T11:19:59.892Z,0.4546
2023-05-09T11:21:01.007Z,0.4543
2023-05-09T11:22:02.127Z,0.4552
2023-05-09T11:23:03.182Z,0.4543
2023-05-09T11:24:04.300Z,0.4552
2023-05-09T11:25:05.370Z,0.4512
2023-05-09T11:26:06.523Z,0.4529
2023-05-09T11:27:07.594Z,0.4542
2023-05-09T11:28:08.672Z,0.4537
2023-05-09T11:29:09.781Z,0.4537
2023-05-09T11:30:10.876Z,0.4557
2023-05-09T11:31:11.955Z,0.4546
2023-05-09T11:32:13.180Z,0.4540
2023-05-09T11:33:14.228Z,0.4553
2023-05-09T11:34:15.221Z,0.4621
2023-05-09T11:35:16.664Z,0.4690
2023-05-09T11:36:17.440Z,0.4703
2023-05-09T11:37:18.515Z,0.4692
2023-05-09T11:38:19.604Z,0.4661
2023-05-09T11:39:20.704Z,0.4645
2023-05-09T11:40:21.813Z,0.4649
2023-05-09T11:41:22.894Z,0.4641
2023-05-09T11:42:23.977Z,0.4627
2023-05-09T11:43:25.076Z,0.4624
2023-05-09T11:44:26.178Z,0.4658
2023-05-09T11:45:27.271Z,0.4720
2023-05-09T11:46:28.373Z,0.4730
2023-05-09T11:47:29.484Z,0.4705
2023-05-09T11:48:30.618Z,0.4647
2023-05-09T11:49:31.619Z,0.4624
2023-05-09T11:50:32.730Z,0.4622
2023-05-09T11:51:33.819Z,0.4606
2023-05-09T11:52:34.906Z,0.4617
2023-05-09T11:53:35.991Z,0.4603
2023-05-09T11:54:37.085Z,0.4623
2023-05-09T11:55:38.217Z,0.4672
2023-05-09T11:56:39.288Z,0.4716
2023-05-09T11:57:40.379Z,0.4706
2023-05-09T11:58:41.457Z,0.4707
2023-05-09T11:59:42.542Z,0.4688
2023-05-09T12:00:43.650Z,0.4632
2023-05-09T12:01:44.731Z,0.4633
2023-05-09T12:02:46.035Z,0.4664
2023-05-09T12:03:47.068Z,0.4713
2023-05-09T12:04:48.028Z,0.4750
2023-05-09T12:05:49.170Z,0.4713
2023-05-09T12:06:50.200Z,0.4638
2023-05-09T12:07:51.346Z,0.4595
2023-05-09T12:08:52.402Z,0.4577
2023-05-09T12:09:53.511Z,0.4571
2023-05-09T12:10:54.602Z,0.4602
2023-05-09T12:11:55.684Z,0.4579
2023-05-09T12:12:56.797Z,0.4579
2023-05-09T12:13:57.908Z,0.4551
2023-05-09T12:14:59.006Z,0.4551
2023-05-09T12:16:00.163Z,0.4582
2023-05-09T12:17:01.168Z,0.4638
2023-05-09T12:18:02.303Z,0.4681
2023-05-09T12:19:03.418Z,0.4665
2023-05-09T12:20:04.472Z,0.4638
2023-05-09T12:21:05.529Z,0.4630
2023-05-09T12:22:06.661Z,0.4712
2023-05-09T12:23:07.709Z,0.4777
2023-05-09T12:24:08.811Z,0.4785
2023-05-09T12:25:09.898Z,0.4831
2023-05-09T12:26:10.975Z,0.4883
2023-05-09T12:27:12.097Z,0.4941
2023-05-09T12:28:13.183Z,0.4942
2023-05-09T12:29:14.240Z,0.4855
2023-05-09T12:30:15.526Z,0.4802
2023-05-09T12:31:16.489Z,0.4791
2023-05-09T12:32:17.549Z,0.4768
2023-05-09T12:33:18.646Z,0.4741
2023-05-09T12:34:19.813Z,0.4718
2023-05-09T12:35:20.831Z,0.4698
2023-05-09T12:36:21.906Z,0.4720
2023-05-09T12:37:23.005Z,0.4720
2023-05-09T12:38:24.136Z,0.4734
2023-05-09T12:39:25.202Z,0.4702
2023-05-09T12:40:26.284Z,0.4697
2023-05-09T12:41:36.964Z,0.4680
2023-05-09T12:42:29.494Z,0.4694
2023-05-09T12:43:29.597Z,0.4716